createdAt,value
2018-06-25T00:00:51.924Z,53.66
2018-06-25T00:01:51.907Z,53.77
2018-06-25T00:02:51.964Z,53.96
2018-06-25T00:03:51.901Z,53.77
2018-06-25T00:04:51.943Z,53.47
2018-06-25T00:05:52.197Z,53.47
2018-06-25T00:06:53.029Z,53.47
2018-06-25T00:07:52.395Z,53.47
2018-06-25T00:08:51.857Z,53.36
2018-06-25T00:09:51.846Z,53.56
2018-06-25T00:10:51.813Z,53.36
2018-06-25T00:11:51.806Z,53.47
2018-06-25T00:12:51.791Z,53.77
2018-06-25T00:13:51.774Z,53.36
2018-06-25T00:14:51.759Z,53.66
2018-06-25T00:15:51.753Z,53.56
2018-06-25T00:16:51.753Z,53.66
2018-06-25T00:17:51.752Z,53.66
2018-06-25T00:18:51.756Z,53.66
2018-06-25T00:19:51.718Z,53.56
2018-06-25T00:20:51.758Z,53.36
2018-06-25T00:21:51.688Z,53.36
2018-06-25T00:22:51.676Z,53.56
2018-06-25T00:23:51.670Z,53.36
2018-06-25T00:24:51.679Z,53.86
2018-06-25T00:25:51.641Z,53.86
2018-06-25T00:26:51.629Z,53.47
2018-06-25T00:27:51.615Z,53.96
2018-06-25T00:28:51.610Z,53.66
2018-06-25T00:29:51.600Z,53.56
2018-06-25T00:30:51.593Z,53.77
2018-06-25T00:31:51.601Z,53.77
2018-06-25T00:32:51.564Z,53.36
2018-06-25T00:33:51.550Z,53.36
2018-06-25T00:34:51.538Z,53.47
2018-06-25T00:35:51.544Z,53.77
2018-06-25T00:36:51.551Z,53.66
2018-06-25T00:37:51.508Z,53.96
2018-06-25T00:38:51.503Z,53.66
2018-06-25T00:39:51.497Z,53.77
2018-06-25T00:40:51.490Z,53.77
2018-06-25T00:41:51.485Z,53.77
2018-06-25T00:42:51.758Z,53.66
2018-06-25T00:43:51.450Z,53.86
2018-06-25T00:44:51.434Z,53.47
2018-06-25T00:45:51.430Z,53.47
2018-06-25T00:46:51.408Z,53.47
2018-06-25T00:47:51.444Z,53.56
2018-06-25T00:48:51.395Z,53.66
2018-06-25T00:49:51.644Z,53.56
2018-06-25T00:50:51.385Z,53.86
2018-06-25T00:51:51.404Z,53.77
2018-06-25T00:52:51.348Z,53.77
2018-06-25T00:53:51.356Z,53.96
2018-06-25T00:54:51.361Z,53.86
2018-06-25T00:55:51.379Z,53.66
2018-06-25T00:56:51.304Z,53.56
2018-06-25T00:57:51.289Z,53.47
2018-06-25T00:58:51.308Z,53.47
2018-06-25T00:59:51.293Z,53.56
2018-06-25T01:00:51.271Z,53.66
2018-06-25T01:01:51.249Z,53.56
2018-06-25T01:02:51.248Z,53.86
2018-06-25T01:03:51.249Z,53.96
2018-06-25T01:04:51.221Z,53.86
2018-06-25T01:05:51.202Z,53.96
2018-06-25T01:06:51.192Z,53.56
2018-06-25T01:07:51.184Z,53.77
2018-06-25T01:08:51.228Z,53.66
2018-06-25T01:09:51.360Z,53.56
2018-06-25T01:10:51.159Z,53.77
2018-06-25T01:11:51.144Z,53.66
2018-06-25T01:12:51.147Z,53.36
2018-06-25T01:13:51.132Z,53.47
2018-06-25T01:14:51.146Z,53.47
2018-06-25T01:15:51.119Z,53.86
2018-06-25T01:16:51.093Z,53.47
2018-06-25T01:17:51.081Z,53.77
2018-06-25T01:18:51.084Z,53.56
2018-06-25T01:19:51.080Z,53.77
2018-06-25T01:20:51.044Z,53.47
2018-06-25T01:21:51.045Z,53.66
2018-06-25T01:22:51.024Z,53.77
2018-06-25T01:23:51.010Z,53.77
2018-06-25T01:24:50.997Z,54.16
2018-06-25T01:25:51.051Z,53.77
2018-06-25T01:26:50.978Z,53.77
2018-06-25T01:27:50.986Z,53.77
2018-06-25T01:28:50.978Z,53.66
2018-06-25T01:29:50.954Z,53.96
2018-06-25T01:30:50.935Z,53.96
2018-06-25T01:31:50.929Z,53.86
2018-06-25T01:32:50.924Z,53.77
2018-06-25T01:33:50.942Z,53.66
2018-06-25T01:34:50.894Z,53.77
2018-06-25T01:35:50.889Z,53.77
2018-06-25T01:36:50.891Z,53.66
2018-06-25T01:37:50.862Z,53.77
2018-06-25T01:38:50.874Z,53.96
2018-06-25T01:39:50.835Z,53.56
2018-06-25T01:40:50.844Z,53.66
2018-06-25T01:41:50.843Z,53.56
2018-06-25T01:42:50.810Z,53.77
2018-06-25T01:43:50.795Z,53.96
2018-06-25T01:44:50.806Z,53.66
2018-06-25T01:45:50.783Z,53.77
2018-06-25T01:46:50.769Z,53.77
2018-06-25T01:47:50.755Z,53.77
2018-06-25T01:48:50.768Z,53.56
2018-06-25T01:49:50.751Z,53.86
2018-06-25T01:50:50.755Z,53.96
2018-06-25T01:51:50.711Z,53.77
2018-06-25T01:52:50.757Z,53.77
2018-06-25T01:53:50.692Z,53.96
2018-06-25T01:54:50.701Z,53.77
2018-06-25T01:55:50.666Z,53.66
2018-06-25T01:56:50.665Z,53.66
2018-06-25T01:57:50.667Z,53.77
2018-06-25T01:58:50.638Z,53.66
2018-06-25T01:59:50.653Z,53.66
2018-06-25T02:00:50.612Z,53.77
2018-06-25T02:01:50.631Z,53.96
2018-06-25T02:02:50.597Z,53.77
2018-06-25T02:03:50.584Z,53.66
2018-06-25T02:04:50.611Z,53.77
2018-06-25T02:05:50.564Z,53.66
2018-06-25T02:06:50.548Z,53.86
2018-06-25T02:07:50.538Z,53.66
2018-06-25T02:08:50.525Z,53.86
2018-06-25T02:09:50.540Z,53.66
2018-06-25T02:10:50.507Z,53.96
2018-06-25T02:11:50.510Z,54.06
2018-06-25T02:12:50.487Z,53.66
2018-06-25T02:13:50.478Z,53.59
2018-06-25T02:14:50.503Z,53.56
2018-06-25T02:15:50.462Z,53.77
2018-06-25T02:16:50.456Z,53.77
2018-06-25T02:17:50.428Z,53.66
2018-06-25T02:18:50.420Z,53.66
2018-06-25T02:19:50.407Z,53.96
2018-06-25T02:20:50.417Z,53.77
2018-06-25T02:21:50.389Z,53.86
2018-06-25T02:22:50.496Z,54.06
2018-06-25T02:23:50.366Z,53.56
2018-06-25T02:24:50.360Z,53.56
2018-06-25T02:25:50.359Z,53.77
2018-06-25T02:26:50.333Z,53.66
2018-06-25T02:27:50.336Z,53.56
2018-06-25T02:28:50.329Z,53.66
2018-06-25T02:29:50.321Z,53.66
2018-06-25T02:30:50.331Z,53.77
2018-06-25T02:31:50.277Z,53.77
2018-06-25T02:32:50.280Z,53.66
2018-06-25T02:33:50.263Z,53.77
2018-06-25T02:34:50.247Z,53.96
2018-06-25T02:35:50.240Z,53.66
2018-06-25T02:36:50.235Z,53.56
2018-06-25T02:37:50.215Z,53.77
2018-06-25T02:38:50.203Z,53.66
2018-06-25T02:39:50.193Z,53.69
2018-06-25T02:40:50.181Z,53.77
2018-06-25T02:41:50.196Z,53.86
2018-06-25T02:42:50.163Z,53.86
2018-06-25T02:43:50.153Z,53.89
2018-06-25T02:44:50.165Z,53.99
2018-06-25T02:45:50.134Z,53.66
2018-06-25T02:46:50.165Z,53.66
2018-06-25T02:47:50.206Z,53.89
2018-06-25T02:48:50.108Z,53.79
2018-06-25T02:49:50.091Z,53.86
2018-06-25T02:50:50.092Z,53.66
2018-06-25T02:51:50.083Z,53.77
2018-06-25T02:52:50.059Z,53.66
2018-06-25T02:53:50.058Z,53.77
2018-06-25T02:54:50.039Z,53.66
2018-06-25T02:55:50.027Z,53.66
2018-06-25T02:56:50.016Z,53.86
2018-06-25T02:57:50.028Z,53.77
2018-06-25T02:58:49.994Z,53.66
2018-06-25T02:59:49.983Z,53.66
2018-06-25T03:00:50.022Z,53.77
2018-06-25T03:01:49.965Z,53.66
2018-06-25T03:02:50.029Z,53.86
2018-06-25T03:03:49.937Z,53.86
2018-06-25T03:04:50.015Z,53.89
2018-06-25T03:05:49.967Z,53.96
2018-06-25T03:06:49.968Z,53.77
2018-06-25T03:07:49.908Z,53.96
2018-06-25T03:08:49.894Z,53.69
2018-06-25T03:09:49.873Z,53.77
2018-06-25T03:10:49.883Z,53.99
2018-06-25T03:11:49.862Z,53.66
2018-06-25T03:12:49.837Z,53.66
2018-06-25T03:13:49.864Z,53.69
2018-06-25T03:14:49.826Z,53.66
2018-06-25T03:15:49.848Z,53.77
2018-06-25T03:16:49.799Z,53.66
2018-06-25T03:17:49.794Z,53.77
2018-06-25T03:18:49.780Z,53.77
2018-06-25T03:19:49.778Z,53.99
2018-06-25T03:20:49.756Z,53.66
2018-06-25T03:21:49.754Z,53.69
2018-06-25T03:22:49.751Z,53.96
2018-06-25T03:23:49.741Z,54.06
2018-06-25T03:24:49.722Z,53.56
2018-06-25T03:25:49.704Z,53.89
2018-06-25T03:26:49.688Z,53.96
2018-06-25T03:27:49.678Z,53.66
2018-06-25T03:28:49.670Z,54.16
2018-06-25T03:29:49.678Z,53.69
2018-06-25T03:30:49.651Z,53.96
2018-06-25T03:31:49.666Z,53.96
2018-06-25T03:32:49.675Z,54.06
2018-06-25T03:33:49.609Z,53.79
2018-06-25T03:34:49.632Z,53.59
2018-06-25T03:35:49.592Z,53.66
2018-06-25T03:36:49.582Z,53.79
2018-06-25T03:37:49.575Z,54.06
2018-06-25T03:38:49.570Z,53.99
2018-06-25T03:39:49.621Z,53.86
2018-06-25T03:40:49.542Z,54.06
2018-06-25T03:41:49.537Z,53.96
2018-06-25T03:42:49.515Z,54.09
2018-06-25T03:43:49.502Z,53.66
2018-06-25T03:44:49.556Z,53.66
2018-06-25T03:45:49.495Z,53.77
2018-06-25T03:46:49.476Z,53.96
2018-06-25T03:47:49.460Z,54.06
2018-06-25T03:48:49.473Z,54.06
2018-06-25T03:49:49.469Z,53.99
2018-06-25T03:50:49.427Z,53.96
2018-06-25T03:51:49.417Z,53.96
2018-06-25T03:52:49.429Z,54.06
2018-06-25T03:53:49.390Z,53.79
2018-06-25T03:54:49.389Z,53.86
2018-06-25T03:55:49.385Z,53.96
2018-06-25T03:56:49.361Z,53.96
2018-06-25T03:57:49.354Z,53.99
2018-06-25T03:58:49.342Z,53.69
2018-06-25T03:59:49.335Z,53.96
2018-06-25T04:00:49.352Z,54.09
2018-06-25T04:01:49.310Z,53.89
2018-06-25T04:02:49.323Z,53.86
2018-06-25T04:03:49.287Z,53.96
2018-06-25T04:04:49.295Z,53.86
2018-06-25T04:05:49.271Z,53.86
2018-06-25T04:06:49.273Z,53.96
2018-06-25T04:07:49.262Z,53.66
2018-06-25T04:08:49.226Z,53.79
2018-06-25T04:09:49.319Z,54.19
2018-06-25T04:10:49.249Z,54.06
2018-06-25T04:11:49.245Z,54.09
2018-06-25T04:12:49.195Z,53.89
2018-06-25T04:13:49.180Z,53.77
2018-06-25T04:14:49.173Z,54.06
2018-06-25T04:15:49.166Z,53.99
2018-06-25T04:16:49.148Z,54.09
2018-06-25T04:17:49.143Z,53.79
2018-06-25T04:18:49.125Z,53.86
2018-06-25T04:19:49.223Z,53.77
2018-06-25T04:20:49.198Z,54.09
2018-06-25T04:21:49.089Z,53.96
2018-06-25T04:22:49.108Z,53.77
2018-06-25T04:23:49.087Z,53.86
2018-06-25T04:24:49.067Z,53.99
2018-06-25T04:25:49.044Z,54.19
2018-06-25T04:26:49.041Z,54.27
2018-06-25T04:27:49.043Z,54.19
2018-06-25T04:28:49.083Z,53.77
2018-06-25T04:29:49.002Z,53.79
2018-06-25T04:30:49.041Z,53.96
2018-06-25T04:31:48.982Z,53.96
2018-06-25T04:32:48.969Z,53.86
2018-06-25T04:33:49.090Z,53.99
2018-06-25T04:34:48.948Z,53.86
2018-06-25T04:35:48.966Z,54.19
2018-06-25T04:36:48.925Z,54.16
2018-06-25T04:37:48.916Z,53.79
2018-06-25T04:38:48.910Z,54.19
2018-06-25T04:39:48.899Z,54.16
2018-06-25T04:40:48.903Z,53.96
2018-06-25T04:41:48.874Z,53.96
2018-06-25T04:42:48.873Z,53.96
2018-06-25T04:43:48.866Z,53.96
2018-06-25T04:44:48.835Z,53.96
2018-06-25T04:45:48.829Z,53.99
2018-06-25T04:46:48.825Z,53.89
2018-06-25T04:47:48.806Z,53.69
2018-06-25T04:48:48.827Z,53.99
2018-06-25T04:49:48.785Z,53.99
2018-06-25T04:50:48.774Z,53.96
2018-06-25T04:51:48.786Z,53.96
2018-06-25T04:52:48.744Z,53.77
2018-06-25T04:53:48.779Z,53.99
2018-06-25T04:54:48.727Z,53.89
2018-06-25T04:55:48.721Z,53.99
2018-06-25T04:56:48.723Z,54.19
2018-06-25T04:57:48.712Z,54.19
2018-06-25T04:58:48.675Z,53.96
2018-06-25T04:59:48.672Z,54.06
2018-06-25T05:00:48.695Z,53.66
2018-06-25T05:01:48.646Z,54.09
2018-06-25T05:02:48.636Z,54.09
2018-06-25T05:03:48.627Z,53.79
2018-06-25T05:04:48.634Z,53.69
2018-06-25T05:05:48.605Z,53.59
2018-06-25T05:06:48.585Z,53.89
2018-06-25T05:07:48.580Z,54.06
2018-06-25T05:08:48.596Z,53.69
2018-06-25T05:09:48.580Z,53.96
2018-06-25T05:10:48.545Z,54.06
2018-06-25T05:11:48.544Z,53.69
2018-06-25T05:12:48.522Z,54.19
2018-06-25T05:13:48.519Z,54.16
2018-06-25T05:14:48.528Z,53.89
2018-06-25T05:15:48.495Z,53.99
2018-06-25T05:16:48.495Z,54.16
2018-06-25T05:17:48.474Z,53.99
2018-06-25T05:18:48.538Z,53.96
2018-06-25T05:19:48.510Z,53.79
2018-06-25T05:20:48.447Z,53.69
2018-06-25T05:21:48.454Z,53.86
2018-06-25T05:22:48.432Z,53.77
2018-06-25T05:23:48.409Z,53.69
2018-06-25T05:24:48.486Z,54.06
2018-06-25T05:25:48.382Z,54.06
2018-06-25T05:26:48.369Z,53.99
2018-06-25T05:27:48.362Z,53.89
2018-06-25T05:28:48.388Z,53.99
2018-06-25T05:29:48.344Z,54.06
2018-06-25T05:30:48.323Z,53.79
2018-06-25T05:31:48.308Z,53.79
2018-06-25T05:32:48.299Z,53.79
2018-06-25T05:33:48.311Z,53.49
2018-06-25T05:34:48.295Z,53.99
2018-06-25T05:35:48.323Z,53.86
2018-06-25T05:36:48.270Z,53.99
2018-06-25T05:37:48.263Z,54.06
2018-06-25T05:38:48.228Z,53.79
2018-06-25T05:39:48.225Z,53.89
2018-06-25T05:40:48.229Z,53.79
2018-06-25T05:41:48.214Z,53.56
2018-06-25T05:42:48.196Z,53.89
2018-06-25T05:43:48.182Z,53.77
2018-06-25T05:44:48.164Z,53.69
2018-06-25T05:45:48.193Z,53.59
2018-06-25T05:46:48.153Z,53.69
2018-06-25T05:47:48.138Z,53.79
2018-06-25T05:48:48.134Z,54.16
2018-06-25T05:49:48.110Z,54.59
2018-06-25T05:50:48.095Z,53.66
2018-06-25T05:51:48.087Z,53.69
2018-06-25T05:52:48.077Z,54.19
2018-06-25T05:53:48.067Z,53.99
2018-06-25T05:54:48.064Z,53.77
2018-06-25T05:55:48.042Z,54.09
2018-06-25T05:56:48.056Z,53.96
2018-06-25T05:57:48.022Z,54.09
2018-06-25T05:58:48.015Z,53.79
2018-06-25T05:59:48.002Z,54.19
2018-06-25T06:00:48.020Z,54.19
2018-06-25T06:01:47.994Z,53.89
2018-06-25T06:02:48.034Z,54.09
2018-06-25T06:03:48.025Z,54.16
2018-06-25T06:04:48.016Z,54.19
2018-06-25T06:05:48.116Z,53.96
2018-06-25T06:06:48.210Z,53.96
2018-06-25T06:07:47.967Z,54.29
2018-06-25T06:08:47.913Z,53.79
2018-06-25T06:09:47.891Z,53.99
2018-06-25T06:10:47.879Z,54.27
2018-06-25T06:11:47.871Z,54.09
2018-06-25T06:12:47.864Z,54.46
2018-06-25T06:13:47.963Z,54.16
2018-06-25T06:14:47.945Z,53.96
2018-06-25T06:15:47.943Z,54.09
2018-06-25T06:16:47.857Z,54.19
2018-06-25T06:17:47.821Z,54.57
2018-06-25T06:18:47.802Z,54.39
2018-06-25T06:19:47.784Z,54.57
2018-06-25T06:20:47.821Z,53.99
2018-06-25T06:21:47.780Z,54.57
2018-06-25T06:22:47.773Z,53.99
2018-06-25T06:23:47.737Z,54.29
2018-06-25T06:24:47.742Z,54.46
2018-06-25T06:25:47.724Z,54.06
2018-06-25T06:26:47.750Z,54.59
2018-06-25T06:27:47.721Z,54.46
2018-06-25T06:28:47.810Z,53.79
2018-06-25T06:29:47.701Z,54.27
2018-06-25T06:30:47.662Z,54.19
2018-06-25T06:31:47.686Z,54.39
2018-06-25T06:32:47.684Z,54.59
2018-06-25T06:33:47.627Z,54.06
2018-06-25T06:34:47.608Z,54.46
2018-06-25T06:35:47.634Z,54.57
2018-06-25T06:36:47.589Z,54.06
2018-06-25T06:37:47.588Z,54.16
2018-06-25T06:38:47.591Z,54.19
2018-06-25T06:39:47.574Z,54.49
2018-06-25T06:40:47.615Z,54.06
2018-06-25T06:41:47.575Z,54.49
2018-06-25T06:42:47.547Z,54.59
2018-06-25T06:43:47.572Z,54.46
2018-06-25T06:44:47.540Z,54.36
2018-06-25T06:45:47.550Z,54.57
2018-06-25T06:46:47.481Z,53.99
2018-06-25T06:47:47.478Z,54.09
2018-06-25T06:48:47.487Z,54.09
2018-06-25T06:49:47.497Z,54.09
2018-06-25T06:50:47.443Z,54.09
2018-06-25T06:51:47.445Z,54.09
2018-06-25T06:52:47.425Z,54.19
2018-06-25T06:53:47.519Z,53.96
2018-06-25T06:54:47.418Z,54.09
2018-06-25T06:55:47.447Z,54.39
2018-06-25T06:56:47.392Z,54.29
2018-06-25T06:57:47.427Z,54.29
2018-06-25T06:58:47.354Z,54.79
2018-06-25T06:59:47.434Z,54.79
2018-06-25T07:00:47.334Z,54.46
2018-06-25T07:01:47.320Z,54.27
2018-06-25T07:02:47.315Z,54.49
2018-06-25T07:03:47.336Z,54.36
2018-06-25T07:04:47.322Z,54.29
2018-06-25T07:05:47.289Z,54.29
2018-06-25T07:06:47.267Z,54.16
2018-06-25T07:07:47.285Z,54.39
2018-06-25T07:08:47.243Z,54.16
2018-06-25T07:09:47.270Z,54.27
2018-06-25T07:10:47.236Z,54.27
2018-06-25T07:11:47.221Z,54.27
2018-06-25T07:12:47.226Z,54.36
2018-06-25T07:13:47.193Z,54.39
2018-06-25T07:14:47.198Z,54.27
2018-06-25T07:15:47.198Z,54.06
2018-06-25T07:16:47.187Z,54.27
2018-06-25T07:17:47.150Z,54.36
2018-06-25T07:18:47.136Z,54.36
2018-06-25T07:19:47.151Z,54.27
2018-06-25T07:20:47.164Z,54.46
2018-06-25T07:21:47.106Z,54.27
2018-06-25T07:22:47.142Z,54.57
2018-06-25T07:23:47.101Z,53.99
2018-06-25T07:24:47.091Z,54.09
2018-06-25T07:25:47.067Z,54.06
2018-06-25T07:26:47.047Z,53.86
2018-06-25T07:27:47.038Z,53.96
2018-06-25T07:28:47.032Z,53.86
2018-06-25T07:29:47.088Z,53.96
2018-06-25T07:30:47.058Z,53.86
2018-06-25T07:31:46.994Z,53.99
2018-06-25T07:32:46.987Z,53.96
2018-06-25T07:33:46.988Z,53.96
2018-06-25T07:34:47.014Z,54.06
2018-06-25T07:35:46.959Z,53.86
2018-06-25T07:36:46.945Z,53.96
2018-06-25T07:37:46.938Z,54.16
2018-06-25T07:38:46.945Z,54.19
2018-06-25T07:39:47.221Z,53.96
2018-06-25T07:40:46.904Z,53.96
2018-06-25T07:41:46.899Z,53.89
2018-06-25T07:42:46.894Z,53.99
2018-06-25T07:43:46.879Z,53.96
2018-06-25T07:44:46.886Z,54.09
2018-06-25T07:45:46.848Z,53.86
2018-06-25T07:46:46.834Z,53.96
2018-06-25T07:47:46.829Z,54.06
2018-06-25T07:48:46.833Z,53.86
2018-06-25T07:49:46.809Z,54.16
2018-06-25T07:50:46.794Z,54.16
2018-06-25T07:51:46.791Z,54.09
2018-06-25T07:52:46.803Z,53.99
2018-06-25T07:53:46.762Z,53.96
2018-06-25T07:54:46.769Z,54.06
2018-06-25T07:55:46.801Z,54.16
2018-06-25T07:56:46.750Z,54.27
2018-06-25T07:57:46.827Z,54.29
2018-06-25T07:58:46.706Z,54.06
2018-06-25T07:59:46.733Z,54.36
2018-06-25T08:00:46.686Z,54.09
2018-06-25T08:01:46.697Z,54.16
2018-06-25T08:02:46.752Z,54.19
2018-06-25T08:03:46.691Z,54.19
2018-06-25T08:04:46.731Z,53.89
2018-06-25T08:05:46.643Z,54.76
2018-06-25T08:06:46.641Z,55.09
2018-06-25T08:07:46.629Z,54.66
2018-06-25T08:08:46.600Z,55.06
2018-06-25T08:09:46.657Z,54.86
2018-06-25T08:10:46.603Z,55.16
2018-06-25T08:11:46.613Z,55.36
2018-06-25T08:12:46.553Z,54.96
2018-06-25T08:13:46.542Z,55.46
2018-06-25T08:14:46.548Z,55.46
2018-06-25T08:15:46.633Z,55.46
2018-06-25T08:16:46.667Z,55.56
2018-06-25T08:17:46.788Z,55.36
2018-06-25T08:18:46.614Z,55.26
2018-06-25T08:19:46.503Z,55.36
2018-06-25T08:20:46.475Z,55.06
2018-06-25T08:21:46.489Z,55.56
2018-06-25T08:22:46.476Z,55.46
2018-06-25T08:23:46.436Z,55.36
2018-06-25T08:24:46.420Z,55.26
2018-06-25T08:25:47.245Z,55.26
2018-06-25T08:26:46.442Z,55.19
2018-06-25T08:27:46.720Z,54.86
2018-06-25T08:28:46.379Z,54.86
2018-06-25T08:29:46.596Z,54.86
2018-06-25T08:30:46.407Z,54.79
2018-06-25T08:31:46.359Z,54.69
2018-06-25T08:32:47.292Z,54.99
2018-06-25T08:33:46.403Z,54.96
2018-06-25T08:34:46.391Z,54.69
2018-06-25T08:35:46.317Z,55.09
2018-06-25T08:36:46.327Z,55.06
2018-06-25T08:37:46.326Z,55.06
2018-06-25T08:38:46.319Z,55.09
2018-06-25T08:39:46.323Z,55.09
2018-06-25T08:40:46.255Z,55.06
2018-06-25T08:41:46.358Z,54.86
2018-06-25T08:42:46.283Z,54.96
2018-06-25T08:43:46.789Z,54.86
2018-06-25T08:44:46.269Z,54.96
2018-06-25T08:45:46.333Z,54.74
2018-06-25T08:46:46.201Z,55.13
2018-06-25T08:47:46.191Z,54.94
2018-06-25T08:48:46.207Z,54.64
2018-06-25T08:49:46.156Z,54.74
2018-06-25T08:50:46.147Z,54.76
2018-06-25T08:51:46.250Z,55.43
2018-06-25T08:52:46.122Z,54.94
2018-06-25T08:53:46.134Z,55.16
2018-06-25T08:54:46.109Z,54.86
2018-06-25T08:55:46.122Z,54.86
2018-06-25T08:56:46.121Z,55.06
2018-06-25T08:57:46.082Z,54.86
2018-06-25T08:58:46.060Z,55.26
2018-06-25T08:59:46.079Z,55.16
2018-06-25T09:00:46.070Z,54.86
2018-06-25T09:01:46.052Z,54.76
2018-06-25T09:02:46.138Z,54.86
2018-06-25T09:03:46.051Z,55.16
2018-06-25T09:04:46.041Z,55.06
2018-06-25T09:05:46.011Z,54.86
2018-06-25T09:06:45.974Z,55.26
2018-06-25T09:07:46.062Z,54.86
2018-06-25T09:08:45.956Z,55.16
2018-06-25T09:09:46.023Z,54.86
2018-06-25T09:10:45.934Z,54.86
2018-06-25T09:11:45.943Z,55.36
2018-06-25T09:12:45.949Z,55.06
2018-06-25T09:13:45.959Z,54.86
2018-06-25T09:14:45.927Z,55.76
2018-06-25T09:15:45.897Z,56.16
2018-06-25T09:16:45.864Z,56.76
2018-06-25T09:17:45.952Z,56.76
2018-06-25T09:18:45.873Z,57.46
2018-06-25T09:19:46.304Z,56.76
2018-06-25T09:20:45.819Z,57.15
2018-06-25T09:21:45.814Z,57.15
2018-06-25T09:22:45.849Z,57.15
2018-06-25T09:23:45.788Z,57.95
2018-06-25T09:24:45.786Z,57.56
2018-06-25T09:25:45.838Z,57.65
2018-06-25T09:26:45.805Z,57.76
2018-06-25T09:27:45.811Z,57.35
2018-06-25T09:28:45.742Z,57.56
2018-06-25T09:29:45.727Z,57.86
2018-06-25T09:30:46.258Z,57.86
2018-06-25T09:31:45.702Z,57.86
2018-06-25T09:32:45.713Z,57.56
2018-06-25T09:33:45.697Z,57.76
2018-06-25T09:34:45.688Z,57.76
2018-06-25T09:35:45.762Z,57.95
2018-06-25T09:36:45.653Z,57.56
2018-06-25T09:37:46.202Z,57.26
2018-06-25T09:38:45.628Z,57.06
2018-06-25T09:39:45.643Z,56.85
2018-06-25T09:40:45.695Z,55.96
2018-06-25T09:41:45.893Z,55.86
2018-06-25T09:42:45.585Z,56.46
2018-06-25T09:43:45.587Z,55.76
2018-06-25T09:44:45.574Z,56.06
2018-06-25T09:45:45.573Z,55.96
2018-06-25T09:46:45.551Z,56.16
2018-06-25T09:47:45.537Z,56.38
2018-06-25T09:48:45.532Z,55.46
2018-06-25T09:49:45.523Z,55.96
2018-06-25T09:50:45.504Z,56.06
2018-06-25T09:51:45.578Z,56.06
2018-06-25T09:52:45.541Z,56.29
2018-06-25T09:53:45.474Z,55.66
2018-06-25T09:54:45.570Z,55.86
2018-06-25T09:55:45.451Z,55.86
2018-06-25T09:56:45.512Z,55.66
2018-06-25T09:57:45.559Z,55.96
2018-06-25T09:58:45.443Z,55.76
2018-06-25T09:59:45.528Z,55.76
2018-06-25T10:00:45.534Z,55.96
2018-06-25T10:01:45.516Z,56.16
2018-06-25T10:02:45.545Z,55.66
2018-06-25T10:03:45.507Z,55.79
2018-06-25T10:04:46.236Z,55.76
2018-06-25T10:05:45.700Z,55.76
2018-06-25T10:06:45.444Z,55.66
2018-06-25T10:07:45.584Z,56.16
2018-06-25T10:08:46.234Z,55.86
2018-06-25T10:09:45.306Z,55.86
2018-06-25T10:10:45.956Z,55.76
2018-06-25T10:11:45.295Z,55.76
2018-06-25T10:12:45.283Z,56.06
2018-06-25T10:13:45.298Z,56.06
2018-06-25T10:14:45.771Z,56.26
2018-06-25T10:15:45.387Z,56.18
2018-06-25T10:16:45.225Z,56.26
2018-06-25T10:17:45.224Z,56.36
2018-06-25T10:18:45.231Z,56.36
2018-06-25T10:19:45.253Z,56.36
2018-06-25T10:20:45.520Z,55.96
2018-06-25T10:21:45.260Z,55.76
2018-06-25T10:22:45.242Z,56.26
2018-06-25T10:23:45.162Z,56.36
2018-06-25T10:24:45.139Z,55.56
2018-06-25T10:25:45.131Z,56.16
2018-06-25T10:26:45.122Z,56.06
2018-06-25T10:27:45.124Z,55.86
2018-06-25T10:28:45.117Z,55.76
2018-06-25T10:29:45.145Z,55.76
2018-06-25T10:30:45.081Z,56.16
2018-06-25T10:31:45.139Z,55.86
2018-06-25T10:32:45.089Z,55.86
2018-06-25T10:33:45.310Z,56.06
2018-06-25T10:34:45.219Z,56.06
2018-06-25T10:35:45.123Z,56.26
2018-06-25T10:36:45.024Z,56.16
2018-06-25T10:37:45.036Z,55.86
2018-06-25T10:38:45.030Z,55.66
2018-06-25T10:39:44.994Z,55.56
2018-06-25T10:40:44.972Z,55.76
2018-06-25T10:41:44.969Z,56.16
2018-06-25T10:42:45.191Z,55.96
2018-06-25T10:43:44.951Z,55.66
2018-06-25T10:44:44.928Z,55.66
2018-06-25T10:45:44.919Z,55.66
2018-06-25T10:46:44.903Z,55.96
2018-06-25T10:47:44.895Z,55.76
2018-06-25T10:48:44.905Z,55.96
2018-06-25T10:49:44.906Z,55.56
2018-06-25T10:50:44.887Z,55.46
2018-06-25T10:51:44.861Z,55.56
2018-06-25T10:52:44.863Z,55.56
2018-06-25T10:53:44.885Z,55.66
2018-06-25T10:54:44.851Z,55.76
2018-06-25T10:55:44.808Z,55.86
2018-06-25T10:56:44.822Z,55.86
2018-06-25T10:57:44.806Z,55.36
2018-06-25T10:58:44.837Z,55.56
2018-06-25T10:59:45.016Z,55.56
2018-06-25T11:00:44.758Z,55.66
2018-06-25T11:01:44.750Z,55.56
2018-06-25T11:02:44.739Z,55.86
2018-06-25T11:03:44.749Z,55.56
2018-06-25T11:04:44.718Z,55.26
2018-06-25T11:05:44.706Z,55.56
2018-06-25T11:06:44.693Z,55.36
2018-06-25T11:07:44.879Z,55.46
2018-06-25T11:08:44.709Z,55.66
2018-06-25T11:09:44.666Z,55.56
2018-06-25T11:10:44.697Z,55.36
2018-06-25T11:11:44.654Z,55.46
2018-06-25T11:12:44.752Z,55.36
2018-06-25T11:13:44.668Z,55.56
2018-06-25T11:14:44.673Z,55.26
2018-06-25T11:15:44.603Z,55.36
2018-06-25T11:16:44.607Z,55.26
2018-06-25T11:17:44.608Z,55.36
2018-06-25T11:18:44.676Z,55.36
2018-06-25T11:19:44.558Z,55.46
2018-06-25T11:20:44.585Z,55.26
2018-06-25T11:21:44.641Z,55.56
2018-06-25T11:22:44.561Z,55.56
2018-06-25T11:23:44.517Z,55.46
2018-06-25T11:24:44.508Z,55.36
2018-06-25T11:25:44.497Z,55.36
2018-06-25T11:26:44.496Z,55.16
2018-06-25T11:27:44.531Z,55.26
2018-06-25T11:28:44.460Z,55.56
2018-06-25T11:29:44.460Z,55.16
2018-06-25T11:30:44.449Z,55.56
2018-06-25T11:31:44.452Z,55.36
2018-06-25T11:32:44.425Z,55.26
2018-06-25T11:33:44.420Z,55.39
2018-06-25T11:34:44.405Z,55.26
2018-06-25T11:35:44.416Z,55.36
2018-06-25T11:36:44.378Z,55.46
2018-06-25T11:37:44.391Z,55.36
2018-06-25T11:38:44.445Z,55.16
2018-06-25T11:39:44.403Z,55.46
2018-06-25T11:40:44.358Z,55.46
2018-06-25T11:41:44.356Z,55.06
2018-06-25T11:42:44.396Z,55.06
2018-06-25T11:43:44.370Z,55.06
2018-06-25T11:44:44.321Z,55.26
2018-06-25T11:45:44.286Z,54.96
2018-06-25T11:46:44.292Z,55.66
2018-06-25T11:47:44.276Z,55.36
2018-06-25T11:48:44.340Z,55.46
2018-06-25T11:49:44.285Z,55.26
2018-06-25T11:50:44.253Z,55.26
2018-06-25T11:51:44.327Z,55.66
2018-06-25T11:52:44.255Z,55.26
2018-06-25T11:53:44.300Z,55.26
2018-06-25T11:54:44.213Z,55.06
2018-06-25T11:55:44.183Z,55.36
2018-06-25T11:56:44.171Z,55.26
2018-06-25T11:57:44.161Z,55.26
2018-06-25T11:58:44.143Z,55.16
2018-06-25T11:59:44.134Z,55.46
2018-06-25T12:00:44.121Z,55.26
2018-06-25T12:01:44.148Z,55.26
2018-06-25T12:02:44.358Z,55.26
2018-06-25T12:03:44.166Z,54.66
2018-06-25T12:04:44.120Z,54.76
2018-06-25T12:05:44.070Z,54.86
2018-06-25T12:06:44.121Z,55.16
2018-06-25T12:07:44.063Z,55.06
2018-06-25T12:08:44.046Z,54.86
2018-06-25T12:09:44.043Z,54.86
2018-06-25T12:10:44.184Z,55.06
2018-06-25T12:11:44.063Z,54.86
2018-06-25T12:12:44.005Z,55.16
2018-06-25T12:13:44.043Z,54.86
2018-06-25T12:14:43.984Z,54.96
2018-06-25T12:15:43.990Z,55.26
2018-06-25T12:16:43.981Z,54.86
2018-06-25T12:17:43.977Z,54.66
2018-06-25T12:18:43.927Z,54.76
2018-06-25T12:19:43.928Z,54.86
2018-06-25T12:20:43.942Z,55.16
2018-06-25T12:21:43.898Z,54.86
2018-06-25T12:22:43.884Z,54.86
2018-06-25T12:23:43.872Z,54.96
2018-06-25T12:24:43.868Z,55.16
2018-06-25T12:25:43.858Z,54.76
2018-06-25T12:26:43.865Z,55.26
2018-06-25T12:27:43.876Z,55.26
2018-06-25T12:28:43.822Z,54.96
2018-06-25T12:29:43.820Z,54.86
2018-06-25T12:30:43.803Z,55.06
2018-06-25T12:31:43.812Z,55.26
2018-06-25T12:32:43.856Z,55.26
2018-06-25T12:33:43.767Z,54.86
2018-06-25T12:34:43.949Z,55.36
2018-06-25T12:35:43.751Z,54.86
2018-06-25T12:36:44.022Z,54.86
2018-06-25T12:37:43.785Z,55.36
2018-06-25T12:38:43.717Z,54.86
2018-06-25T12:39:43.731Z,54.76
2018-06-25T12:40:43.713Z,54.96
2018-06-25T12:41:43.737Z,54.66
2018-06-25T12:42:43.691Z,54.86
2018-06-25T12:43:43.661Z,55.06
2018-06-25T12:44:43.655Z,55.06
2018-06-25T12:45:43.640Z,54.66
2018-06-25T12:46:43.672Z,54.86
2018-06-25T12:47:43.656Z,54.86
2018-06-25T12:48:43.605Z,55.26
2018-06-25T12:49:43.592Z,55.26
2018-06-25T12:50:43.605Z,55.16
2018-06-25T12:51:43.571Z,55.46
2018-06-25T12:52:43.566Z,55.66